sensor_id;sensor_type;location;lat;lon;timestamp;P1;durP1;ratioP1;P2;durP2;ratioP2
36233;SDS011;43467;50.890;5.982;2024-02-28T00:00:00;99.30;;;49.88;;
36233;SDS011;43467;50.890;5.982;2024-02-28T00:02:25;97.57;;;49.13;;
36233;SDS011;43467;50.890;5.982;2024-02-28T00:04:50;96.82;;;49.33;;
36233;SDS011;43467;50.890;5.982;2024-02-28T00:07:16;95.75;;;48.67;;
36233;SDS011;43467;50.890;5.982;2024-02-28T00:09:43;95.13;;;49.22;;
36233;SDS011;43467;50.890;5.982;2024-02-28T00:12:09;97.60;;;50.47;;
36233;SDS011;43467;50.890;5.982;2024-02-28T00:14:35;97.18;;;48.92;;
36233;SDS011;43467;50.890;5.982;2024-02-28T00:17:01;99.35;;;50.47;;
36233;SDS011;43467;50.890;5.982;2024-02-28T00:19:26;106.72;;;53.15;;
36233;SDS011;43467;50.890;5.982;2024-02-28T00:21:51;102.25;;;52.22;;
36233;SDS011;43467;50.890;5.982;2024-02-28T00:24:17;98.03;;;50.75;;
36233;SDS011;43467;50.890;5.982;2024-02-28T00:26:42;94.57;;;49.50;;
36233;SDS011;43467;50.890;5.982;2024-02-28T00:29:09;102.32;;;52.20;;
36233;SDS011;43467;50.890;5.982;2024-02-28T00:31:35;104.05;;;51.55;;
36233;SDS011;43467;50.890;5.982;2024-02-28T00:34:00;98.55;;;50.38;;
36233;SDS011;43467;50.890;5.982;2024-02-28T00:36:26;105.20;;;51.97;;
36233;SDS011;43467;50.890;5.982;2024-02-28T00:38:51;101.28;;;50.28;;
36233;SDS011;43467;50.890;5.982;2024-02-28T00:41:17;104.82;;;52.75;;
36233;SDS011;43467;50.890;5.982;2024-02-28T00:43:42;101.72;;;50.63;;
36233;SDS011;43467;50.890;5.982;2024-02-28T00:46:08;109.82;;;50.67;;
36233;SDS011;43467;50.890;5.982;2024-02-28T00:48:37;101.43;;;51.08;;
36233;SDS011;43467;50.890;5.982;2024-02-28T00:51:05;108.47;;;50.42;;
36233;SDS011;43467;50.890;5.982;2024-02-28T00:53:31;103.53;;;51.25;;
36233;SDS011;43467;50.890;5.982;2024-02-28T00:55:57;100.63;;;49.75;;
36233;SDS011;43467;50.890;5.982;2024-02-28T00:58:22;102.47;;;50.45;;
36233;SDS011;43467;50.890;5.982;2024-02-28T01:00:48;91.97;;;46.72;;
36233;SDS011;43467;50.890;5.982;2024-02-28T01:03:13;107.50;;;51.17;;
36233;SDS011;43467;50.890;5.982;2024-02-28T01:05:40;98.93;;;50.20;;
36233;SDS011;43467;50.890;5.982;2024-02-28T01:08:06;100.93;;;50.88;;
36233;SDS011;43467;50.890;5.982;2024-02-28T01:10:32;115.20;;;55.47;;
36233;SDS011;43467;50.890;5.982;2024-02-28T01:12:58;106.05;;;51.40;;
36233;SDS011;43467;50.890;5.982;2024-02-28T01:15:23;105.70;;;51.42;;
36233;SDS011;43467;50.890;5.982;2024-02-28T01:17:49;108.13;;;51.85;;
36233;SDS011;43467;50.890;5.982;2024-02-28T01:20:14;103.70;;;50.97;;
36233;SDS011;43467;50.890;5.982;2024-02-28T01:22:40;104.72;;;50.47;;
36233;SDS011;43467;50.890;5.982;2024-02-28T01:25:06;103.45;;;51.78;;
36233;SDS011;43467;50.890;5.982;2024-02-28T01:27:32;108.35;;;52.25;;
36233;SDS011;43467;50.890;5.982;2024-02-28T01:29:57;106.45;;;52.33;;
36233;SDS011;43467;50.890;5.982;2024-02-28T01:32:23;103.50;;;51.45;;
36233;SDS011;43467;50.890;5.982;2024-02-28T01:34:48;110.80;;;54.17;;
36233;SDS011;43467;50.890;5.982;2024-02-28T01:37:13;108.72;;;53.10;;
36233;SDS011;43467;50.890;5.982;2024-02-28T01:39:39;104.82;;;51.60;;
36233;SDS011;43467;50.890;5.982;2024-02-28T01:42:05;99.35;;;49.85;;
36233;SDS011;43467;50.890;5.982;2024-02-28T01:44:30;114.82;;;53.85;;
36233;SDS011;43467;50.890;5.982;2024-02-28T01:46:56;108.82;;;53.20;;
36233;SDS011;43467;50.890;5.982;2024-02-28T01:49:23;101.15;;;49.72;;
36233;SDS011;43467;50.890;5.982;2024-02-28T01:51:48;110.32;;;52.85;;
36233;SDS011;43467;50.890;5.982;2024-02-28T01:54:17;103.38;;;51.42;;
36233;SDS011;43467;50.890;5.982;2024-02-28T01:56:43;105.28;;;51.05;;
36233;SDS011;43467;50.890;5.982;2024-02-28T01:59:09;110.38;;;53.08;;
36233;SDS011;43467;50.890;5.982;2024-02-28T02:01:36;109.72;;;52.50;;
36233;SDS011;43467;50.890;5.982;2024-02-28T02:04:02;109.97;;;51.63;;
36233;SDS011;43467;50.890;5.982;2024-02-28T02:06:28;110.95;;;51.90;;
36233;SDS011;43467;50.890;5.982;2024-02-28T02:08:54;120.00;;;54.28;;
36233;SDS011;43467;50.890;5.982;2024-02-28T02:11:20;111.82;;;52.03;;
36233;SDS011;43467;50.890;5.982;2024-02-28T02:13:47;110.30;;;51.80;;
36233;SDS011;43467;50.890;5.982;2024-02-28T02:16:13;113.55;;;53.53;;
36233;SDS011;43467;50.890;5.982;2024-02-28T02:18:39;105.70;;;52.75;;
36233;SDS011;43467;50.890;5.982;2024-02-28T02:21:04;111.88;;;51.35;;
36233;SDS011;43467;50.890;5.982;2024-02-28T02:23:31;110.53;;;51.40;;
36233;SDS011;43467;50.890;5.982;2024-02-28T02:25:57;104.30;;;49.88;;
36233;SDS011;43467;50.890;5.982;2024-02-28T02:28:23;106.30;;;52.85;;
36233;SDS011;43467;50.890;5.982;2024-02-28T02:30:48;106.57;;;52.25;;
36233;SDS011;43467;50.890;5.982;2024-02-28T02:33:13;108.00;;;49.50;;
36233;SDS011;43467;50.890;5.982;2024-02-28T02:35:39;104.32;;;50.75;;
36233;SDS011;43467;50.890;5.982;2024-02-28T02:38:04;112.57;;;51.65;;
36233;SDS011;43467;50.890;5.982;2024-02-28T02:40:30;102.47;;;50.55;;
36233;SDS011;43467;50.890;5.982;2024-02-28T02:42:55;102.03;;;50.95;;
36233;SDS011;43467;50.890;5.982;2024-02-28T02:45:21;107.03;;;51.55;;
36233;SDS011;43467;50.890;5.982;2024-02-28T02:47:46;96.00;;;47.10;;
36233;SDS011;43467;50.890;5.982;2024-02-28T02:50:12;108.63;;;50.20;;
36233;SDS011;43467;50.890;5.982;2024-02-28T02:52:37;99.47;;;48.40;;
36233;SDS011;43467;50.890;5.982;2024-02-28T02:55:03;98.97;;;48.92;;
36233;SDS011;43467;50.890;5.982;2024-02-28T02:57:28;98.93;;;46.25;;
36233;SDS011;43467;50.890;5.982;2024-02-28T02:59:56;98.32;;;47.80;;
36233;SDS011;43467;50.890;5.982;2024-02-28T03:02:21;100.78;;;48.35;;
36233;SDS011;43467;50.890;5.982;2024-02-28T03:04:47;98.13;;;48.85;;
36233;SDS011;43467;50.890;5.982;2024-02-28T03:07:12;101.97;;;48.70;;
36233;SDS011;43467;50.890;5.982;2024-02-28T03:09:38;93.63;;;45.53;;
36233;SDS011;43467;50.890;5.982;2024-02-28T03:12:03;96.72;;;48.10;;
36233;SDS011;43467;50.890;5.982;2024-02-28T03:14:28;98.47;;;46.63;;
36233;SDS011;43467;50.890;5.982;2024-02-28T03:16:54;102.82;;;48.90;;
36233;SDS011;43467;50.890;5.982;2024-02-28T03:19:19;104.00;;;48.30;;
36233;SDS011;43467;50.890;5.982;2024-02-28T03:21:45;105.93;;;49.38;;
36233;SDS011;43467;50.890;5.982;2024-02-28T03:24:11;92.15;;;46.13;;
36233;SDS011;43467;50.890;5.982;2024-02-28T03:26:36;98.50;;;46.65;;
36233;SDS011;43467;50.890;5.982;2024-02-28T03:29:02;106.35;;;48.25;;
36233;SDS011;43467;50.890;5.982;2024-02-28T03:31:27;102.60;;;47.42;;
36233;SDS011;43467;50.890;5.982;2024-02-28T03:33:53;99.80;;;47.13;;
36233;SDS011;43467;50.890;5.982;2024-02-28T03:36:18;108.80;;;49.40;;
36233;SDS011;43467;50.890;5.982;2024-02-28T03:38:43;99.88;;;46.53;;
36233;SDS011;43467;50.890;5.982;2024-02-28T03:41:09;99.07;;;46.97;;
36233;SDS011;43467;50.890;5.982;2024-02-28T03:43:34;100.38;;;47.72;;
36233;SDS011;43467;50.890;5.982;2024-02-28T03:46:00;97.35;;;46.45;;
36233;SDS011;43467;50.890;5.982;2024-02-28T03:48:25;103.93;;;47.92;;
36233;SDS011;43467;50.890;5.982;2024-02-28T03:50:51;105.22;;;49.50;;
36233;SDS011;43467;50.890;5.982;2024-02-28T03:53:16;113.07;;;50.67;;
36233;SDS011;43467;50.890;5.982;2024-02-28T03:55:42;108.82;;;49.08;;
36233;SDS011;43467;50.890;5.982;2024-02-28T03:58:11;114.95;;;50.75;;
36233;SDS011;43467;50.890;5.982;2024-02-28T04:00:36;112.75;;;50.35;;
36233;SDS011;43467;50.890;5.982;2024-02-28T04:03:02;118.20;;;52.10;;
36233;SDS011;43467;50.890;5.982;2024-02-28T04:05:28;107.70;;;49.67;;
36233;SDS011;43467;50.890;5.982;2024-02-28T04:07:54;104.82;;;48.50;;
36233;SDS011;43467;50.890;5.982;2024-02-28T04:10:19;109.32;;;51.13;;
36233;SDS011;43467;50.890;5.982;2024-02-28T04:12:45;106.97;;;48.42;;
36233;SDS011;43467;50.890;5.982;2024-02-28T04:15:10;108.68;;;52.20;;
36233;SDS011;43467;50.890;5.982;2024-02-28T04:17:39;109.57;;;49.33;;
36233;SDS011;43467;50.890;5.982;2024-02-28T04:20:09;101.53;;;47.45;;
36233;SDS011;43467;50.890;5.982;2024-02-28T04:22:35;106.38;;;49.00;;
36233;SDS011;43467;50.890;5.982;2024-02-28T04:25:00;105.90;;;49.28;;
36233;SDS011;43467;50.890;5.982;2024-02-28T04:27:25;106.60;;;47.30;;
36233;SDS011;43467;50.890;5.982;2024-02-28T04:29:51;108.88;;;49.97;;
36233;SDS011;43467;50.890;5.982;2024-02-28T04:32:16;110.60;;;47.58;;
36233;SDS011;43467;50.890;5.982;2024-02-28T04:34:42;101.43;;;47.85;;
36233;SDS011;43467;50.890;5.982;2024-02-28T04:37:07;107.70;;;49.97;;
36233;SDS011;43467;50.890;5.982;2024-02-28T04:39:33;101.72;;;48.38;;
36233;SDS011;43467;50.890;5.982;2024-02-28T04:41:58;110.18;;;49.95;;
36233;SDS011;43467;50.890;5.982;2024-02-28T04:44:24;108.43;;;49.47;;
36233;SDS011;43467;50.890;5.982;2024-02-28T04:46:49;97.65;;;48.17;;
36233;SDS011;43467;50.890;5.982;2024-02-28T04:49:15;109.60;;;49.30;;
36233;SDS011;43467;50.890;5.982;2024-02-28T04:51:40;103.70;;;48.70;;
36233;SDS011;43467;50.890;5.982;2024-02-28T04:54:05;107.45;;;50.75;;
36233;SDS011;43467;50.890;5.982;2024-02-28T04:56:31;104.35;;;47.33;;
36233;SDS011;43467;50.890;5.982;2024-02-28T04:58:56;101.97;;;47.40;;
36233;SDS011;43467;50.890;5.982;2024-02-28T05:01:22;106.97;;;49.22;;
36233;SDS011;43467;50.890;5.982;2024-02-28T05:03:47;101.32;;;47.15;;
36233;SDS011;43467;50.890;5.982;2024-02-28T05:06:13;105.80;;;48.25;;
36233;SDS011;43467;50.890;5.982;2024-02-28T05:08:38;108.90;;;49.17;;
36233;SDS011;43467;50.890;5.982;2024-02-28T05:11:03;98.30;;;46.45;;
36233;SDS011;43467;50.890;5.982;2024-02-28T05:13:29;105.65;;;46.53;;
36233;SDS011;43467;50.890;5.982;2024-02-28T05:15:54;91.38;;;44.15;;
36233;SDS011;43467;50.890;5.982;2024-02-28T05:18:19;95.13;;;45.30;;
36233;SDS011;43467;50.890;5.982;2024-02-28T05:20:45;98.43;;;45.17;;
36233;SDS011;43467;50.890;5.982;2024-02-28T05:23:10;100.88;;;45.80;;
36233;SDS011;43467;50.890;5.982;2024-02-28T05:25:36;98.00;;;44.50;;
36233;SDS011;43467;50.890;5.982;2024-02-28T05:28:01;95.25;;;44.63;;
36233;SDS011;43467;50.890;5.982;2024-02-28T05:30:27;99.45;;;45.95;;
36233;SDS011;43467;50.890;5.982;2024-02-28T05:32:52;91.05;;;44.45;;
36233;SDS011;43467;50.890;5.982;2024-02-28T05:35:18;99.00;;;45.38;;
36233;SDS011;43467;50.890;5.982;2024-02-28T05:37:44;97.60;;;43.70;;
36233;SDS011;43467;50.890;5.982;2024-02-28T05:40:11;94.00;;;44.50;;
36233;SDS011;43467;50.890;5.982;2024-02-28T05:42:38;92.55;;;42.15;;
36233;SDS011;43467;50.890;5.982;2024-02-28T05:45:04;92.35;;;44.33;;
36233;SDS011;43467;50.890;5.982;2024-02-28T05:47:31;94.22;;;42.08;;
36233;SDS011;43467;50.890;5.982;2024-02-28T05:49:56;102.72;;;44.78;;
36233;SDS011;43467;50.890;5.982;2024-02-28T05:52:23;99.85;;;44.05;;
36233;SDS011;43467;50.890;5.982;2024-02-28T05:54:50;91.25;;;42.70;;
36233;SDS011;43467;50.890;5.982;2024-02-28T05:57:16;96.28;;;44.60;;
36233;SDS011;43467;50.890;5.982;2024-02-28T05:59:42;80.40;;;41.03;;
36233;SDS011;43467;50.890;5.982;2024-02-28T06:02:07;92.75;;;43.05;;
36233;SDS011;43467;50.890;5.982;2024-02-28T06:04:33;88.78;;;42.80;;
36233;SDS011;43467;50.890;5.982;2024-02-28T06:06:58;86.40;;;40.05;;
36233;SDS011;43467;50.890;5.982;2024-02-28T06:09:25;89.65;;;41.78;;
36233;SDS011;43467;50.890;5.982;2024-02-28T06:11:52;86.03;;;41.70;;
36233;SDS011;43467;50.890;5.982;2024-02-28T06:14:17;90.95;;;41.90;;
36233;SDS011;43467;50.890;5.982;2024-02-28T06:16:46;85.15;;;40.63;;
36233;SDS011;43467;50.890;5.982;2024-02-28T06:19:11;92.65;;;42.35;;
36233;SDS011;43467;50.890;5.982;2024-02-28T06:21:37;94.10;;;43.58;;
36233;SDS011;43467;50.890;5.982;2024-02-28T06:24:02;95.32;;;42.30;;
36233;SDS011;43467;50.890;5.982;2024-02-28T06:26:29;88.93;;;40.17;;
36233;SDS011;43467;50.890;5.982;2024-02-28T06:28:56;81.78;;;39.40;;
36233;SDS011;43467;50.890;5.982;2024-02-28T06:31:26;88.07;;;40.50;;
36233;SDS011;43467;50.890;5.982;2024-02-28T06:33:54;83.97;;;39.60;;
36233;SDS011;43467;50.890;5.982;2024-02-28T06:36:20;77.75;;;37.92;;
36233;SDS011;43467;50.890;5.982;2024-02-28T06:41:20;82.00;;;37.05;;
36233;SDS011;43467;50.890;5.982;2024-02-28T06:43:46;90.65;;;39.63;;
36233;SDS011;43467;50.890;5.982;2024-02-28T06:46:11;81.95;;;37.92;;
36233;SDS011;43467;50.890;5.982;2024-02-28T06:48:36;82.28;;;38.17;;
36233;SDS011;43467;50.890;5.982;2024-02-28T06:51:02;85.90;;;39.28;;
36233;SDS011;43467;50.890;5.982;2024-02-28T06:53:27;84.65;;;40.30;;
36233;SDS011;43467;50.890;5.982;2024-02-28T06:55:53;86.00;;;39.58;;
36233;SDS011;43467;50.890;5.982;2024-02-28T06:58:18;88.32;;;38.92;;
36233;SDS011;43467;50.890;5.982;2024-02-28T07:00:44;78.03;;;38.38;;
36233;SDS011;43467;50.890;5.982;2024-02-28T07:03:09;80.15;;;37.10;;
36233;SDS011;43467;50.890;5.982;2024-02-28T07:05:34;83.28;;;38.03;;
36233;SDS011;43467;50.890;5.982;2024-02-28T07:08:01;71.68;;;35.97;;
36233;SDS011;43467;50.890;5.982;2024-02-28T07:10:27;83.10;;;37.78;;
36233;SDS011;43467;50.890;5.982;2024-02-28T07:12:52;81.75;;;38.22;;
36233;SDS011;43467;50.890;5.982;2024-02-28T07:15:17;83.45;;;39.05;;
36233;SDS011;43467;50.890;5.982;2024-02-28T07:17:45;85.88;;;37.85;;
36233;SDS011;43467;50.890;5.982;2024-02-28T07:20:11;82.60;;;36.40;;
36233;SDS011;43467;50.890;5.982;2024-02-28T07:22:37;82.53;;;37.60;;
36233;SDS011;43467;50.890;5.982;2024-02-28T07:25:03;85.97;;;38.25;;
36233;SDS011;43467;50.890;5.982;2024-02-28T07:27:29;83.20;;;35.47;;
36233;SDS011;43467;50.890;5.982;2024-02-28T07:29:55;82.00;;;36.10;;
36233;SDS011;43467;50.890;5.982;2024-02-28T07:32:21;78.13;;;34.47;;
36233;SDS011;43467;50.890;5.982;2024-02-28T07:34:47;80.53;;;35.28;;
36233;SDS011;43467;50.890;5.982;2024-02-28T07:37:12;77.70;;;34.72;;
36233;SDS011;43467;50.890;5.982;2024-02-28T07:39:38;76.70;;;34.55;;
36233;SDS011;43467;50.890;5.982;2024-02-28T07:42:03;76.38;;;34.45;;
36233;SDS011;43467;50.890;5.982;2024-02-28T07:44:28;74.55;;;34.20;;
36233;SDS011;43467;50.890;5.982;2024-02-28T07:46:56;73.20;;;32.83;;
36233;SDS011;43467;50.890;5.982;2024-02-28T07:49:22;67.68;;;32.30;;
36233;SDS011;43467;50.890;5.982;2024-02-28T07:51:48;71.70;;;32.55;;
36233;SDS011;43467;50.890;5.982;2024-02-28T07:54:14;76.68;;;32.97;;
36233;SDS011;43467;50.890;5.982;2024-02-28T07:56:40;70.25;;;31.80;;
36233;SDS011;43467;50.890;5.982;2024-02-28T07:59:05;70.72;;;31.67;;
36233;SDS011;43467;50.890;5.982;2024-02-28T08:01:30;76.72;;;33.80;;
36233;SDS011;43467;50.890;5.982;2024-02-28T08:03:56;65.43;;;31.33;;
36233;SDS011;43467;50.890;5.982;2024-02-28T08:06:22;69.63;;;32.50;;
36233;SDS011;43467;50.890;5.982;2024-02-28T08:08:47;70.03;;;30.35;;
36233;SDS011;43467;50.890;5.982;2024-02-28T08:11:12;67.90;;;33.17;;
36233;SDS011;43467;50.890;5.982;2024-02-28T08:13:38;69.57;;;31.45;;
36233;SDS011;43467;50.890;5.982;2024-02-28T08:16:04;68.47;;;31.38;;
36233;SDS011;43467;50.890;5.982;2024-02-28T08:18:29;69.18;;;30.92;;
36233;SDS011;43467;50.890;5.982;2024-02-28T08:20:55;69.85;;;31.27;;
36233;SDS011;43467;50.890;5.982;2024-02-28T08:23:22;68.07;;;31.63;;
36233;SDS011;43467;50.890;5.982;2024-02-28T08:25:48;61.30;;;29.27;;
36233;SDS011;43467;50.890;5.982;2024-02-28T08:28:14;68.57;;;31.58;;
36233;SDS011;43467;50.890;5.982;2024-02-28T08:30:39;69.13;;;31.67;;
36233;SDS011;43467;50.890;5.982;2024-02-28T08:33:06;71.00;;;33.13;;
36233;SDS011;43467;50.890;5.982;2024-02-28T08:35:32;65.97;;;31.08;;
36233;SDS011;43467;50.890;5.982;2024-02-28T08:37:57;66.75;;;29.92;;
36233;SDS011;43467;50.890;5.982;2024-02-28T08:40:23;66.82;;;30.95;;
36233;SDS011;43467;50.890;5.982;2024-02-28T08:42:49;64.57;;;27.98;;
36233;SDS011;43467;50.890;5.982;2024-02-28T08:45:17;61.13;;;28.20;;
36233;SDS011;43467;50.890;5.982;2024-02-28T08:47:43;59.67;;;27.52;;
36233;SDS011;43467;50.890;5.982;2024-02-28T08:50:09;65.65;;;28.55;;
36233;SDS011;43467;50.890;5.982;2024-02-28T08:52:35;60.50;;;28.17;;
36233;SDS011;43467;50.890;5.982;2024-02-28T08:55:01;53.65;;;25.92;;
36233;SDS011;43467;50.890;5.982;2024-02-28T08:57:26;58.95;;;27.50;;
36233;SDS011;43467;50.890;5.982;2024-02-28T08:59:52;55.75;;;27.40;;
36233;SDS011;43467;50.890;5.982;2024-02-28T09:02:18;54.65;;;25.05;;
36233;SDS011;43467;50.890;5.982;2024-02-28T09:04:44;58.10;;;27.55;;
36233;SDS011;43467;50.890;5.982;2024-02-28T09:07:10;53.78;;;25.02;;
36233;SDS011;43467;50.890;5.982;2024-02-28T09:09:41;58.10;;;26.60;;
36233;SDS011;43467;50.890;5.982;2024-02-28T09:12:08;52.63;;;23.65;;
36233;SDS011;43467;50.890;5.982;2024-02-28T09:14:35;55.47;;;26.40;;
36233;SDS011;43467;50.890;5.982;2024-02-28T09:17:00;60.20;;;26.27;;
36233;SDS011;43467;50.890;5.982;2024-02-28T09:19:29;54.28;;;26.13;;
36233;SDS011;43467;50.890;5.982;2024-02-28T09:21:55;52.53;;;24.75;;
36233;SDS011;43467;50.890;5.982;2024-02-28T09:24:21;51.45;;;24.92;;
36233;SDS011;43467;50.890;5.982;2024-02-28T09:26:46;47.35;;;24.80;;
36233;SDS011;43467;50.890;5.982;2024-02-28T09:29:12;58.45;;;26.15;;
36233;SDS011;43467;50.890;5.982;2024-02-28T09:31:37;56.33;;;26.67;;
36233;SDS011;43467;50.890;5.982;2024-02-28T09:34:02;55.22;;;26.77;;
36233;SDS011;43467;50.890;5.982;2024-02-28T09:36:32;56.78;;;26.63;;
36233;SDS011;43467;50.890;5.982;2024-02-28T09:38:59;54.90;;;26.45;;
36233;SDS011;43467;50.890;5.982;2024-02-28T09:41:24;60.30;;;26.17;;
36233;SDS011;43467;50.890;5.982;2024-02-28T09:43:51;53.40;;;26.42;;
36233;SDS011;43467;50.890;5.982;2024-02-28T09:46:17;50.63;;;23.63;;
36233;SDS011;43467;50.890;5.982;2024-02-28T09:48:42;51.47;;;25.77;;
36233;SDS011;43467;50.890;5.982;2024-02-28T09:51:09;47.33;;;24.33;;
36233;SDS011;43467;50.890;5.982;2024-02-28T09:53:37;52.10;;;24.08;;
36233;SDS011;43467;50.890;5.982;2024-02-28T09:56:03;49.72;;;23.13;;
36233;SDS011;43467;50.890;5.982;2024-02-28T09:58:30;51.28;;;23.55;;
36233;SDS011;43467;50.890;5.982;2024-02-28T10:00:58;46.88;;;23.38;;
36233;SDS011;43467;50.890;5.982;2024-02-28T10:03:27;52.65;;;25.10;;
36233;SDS011;43467;50.890;5.982;2024-02-28T10:05:55;47.33;;;24.23;;
36233;SDS011;43467;50.890;5.982;2024-02-28T10:08:20;52.92;;;25.98;;
36233;SDS011;43467;50.890;5.982;2024-02-28T10:10:48;59.03;;;29.52;;
36233;SDS011;43467;50.890;5.982;2024-02-28T10:16:08;45.58;;;22.77;;
36233;SDS011;43467;50.890;5.982;2024-02-28T10:18:33;44.08;;;23.10;;
36233;SDS011;43467;50.890;5.982;2024-02-28T10:20:59;41.80;;;21.00;;
36233;SDS011;43467;50.890;5.982;2024-02-28T10:23:25;41.33;;;21.05;;
36233;SDS011;43467;50.890;5.982;2024-02-28T10:25:52;41.25;;;21.98;;
36233;SDS011;43467;50.890;5.982;2024-02-28T10:28:17;46.83;;;22.55;;
36233;SDS011;43467;50.890;5.982;2024-02-28T10:30:43;46.63;;;23.52;;
36233;SDS011;43467;50.890;5.982;2024-02-28T10:33:12;40.10;;;21.08;;
36233;SDS011;43467;50.890;5.982;2024-02-28T10:35:42;46.17;;;22.27;;
36233;SDS011;43467;50.890;5.982;2024-02-28T10:38:12;44.67;;;22.95;;
36233;SDS011;43467;50.890;5.982;2024-02-28T10:40:41;43.00;;;21.23;;
36233;SDS011;43467;50.890;5.982;2024-02-28T10:43:10;47.90;;;22.63;;
36233;SDS011;43467;50.890;5.982;2024-02-28T10:45:36;42.97;;;22.25;;
36233;SDS011;43467;50.890;5.982;2024-02-28T10:48:05;47.22;;;23.90;;
36233;SDS011;43467;50.890;5.982;2024-02-28T10:50:31;45.72;;;21.80;;
36233;SDS011;43467;50.890;5.982;2024-02-28T10:53:00;43.00;;;21.98;;
36233;SDS011;43467;50.890;5.982;2024-02-28T10:55:34;41.65;;;21.40;;
36233;SDS011;43467;50.890;5.982;2024-02-28T10:58:03;39.00;;;20.20;;
36233;SDS011;43467;50.890;5.982;2024-02-28T11:00:36;36.83;;;19.10;;
36233;SDS011;43467;50.890;5.982;2024-02-28T11:03:12;35.55;;;17.73;;
36233;SDS011;43467;50.890;5.982;2024-02-28T11:05:41;37.08;;;19.15;;
36233;SDS011;43467;50.890;5.982;2024-02-28T11:08:11;37.45;;;18.63;;
36233;SDS011;43467;50.890;5.982;2024-02-28T11:10:47;36.92;;;18.15;;
36233;SDS011;43467;50.890;5.982;2024-02-28T11:13:26;39.03;;;18.45;;
36233;SDS011;43467;50.890;5.982;2024-02-28T11:15:53;40.25;;;19.48;;
36233;SDS011;43467;50.890;5.982;2024-02-28T11:18:20;38.40;;;20.30;;
36233;SDS011;43467;50.890;5.982;2024-02-28T11:20:45;36.88;;;19.15;;
36233;SDS011;43467;50.890;5.982;2024-02-28T11:23:13;37.88;;;18.58;;
36233;SDS011;43467;50.890;5.982;2024-02-28T11:25:39;39.20;;;19.13;;
36233;SDS011;43467;50.890;5.982;2024-02-28T11:28:05;39.38;;;19.50;;
36233;SDS011;43467;50.890;5.982;2024-02-28T11:30:32;32.97;;;16.67;;
36233;SDS011;43467;50.890;5.982;2024-02-28T11:32:57;35.60;;;16.10;;
36233;SDS011;43467;50.890;5.982;2024-02-28T11:35:24;34.60;;;16.33;;
36233;SDS011;43467;50.890;5.982;2024-02-28T11:37:50;35.95;;;17.25;;
36233;SDS011;43467;50.890;5.982;2024-02-28T11:40:18;35.03;;;18.52;;
36233;SDS011;43467;50.890;5.982;2024-02-28T11:42:44;35.88;;;19.02;;
36233;SDS011;43467;50.890;5.982;2024-02-28T11:45:09;37.58;;;19.38;;
36233;SDS011;43467;50.890;5.982;2024-02-28T11:47:35;33.38;;;16.83;;
36233;SDS011;43467;50.890;5.982;2024-02-28T11:50:01;29.08;;;15.63;;
36233;SDS011;43467;50.890;5.982;2024-02-28T11:52:28;30.73;;;15.82;;
36233;SDS011;43467;50.890;5.982;2024-02-28T11:54:56;29.50;;;14.55;;
36233;SDS011;43467;50.890;5.982;2024-02-28T11:57:21;22.95;;;12.80;;
36233;SDS011;43467;50.890;5.982;2024-02-28T11:59:47;29.83;;;15.00;;
36233;SDS011;43467;50.890;5.982;2024-02-28T12:02:14;28.10;;;15.32;;
36233;SDS011;43467;50.890;5.982;2024-02-28T12:04:42;34.45;;;15.35;;
36233;SDS011;43467;50.890;5.982;2024-02-28T12:07:08;31.05;;;14.88;;
36233;SDS011;43467;50.890;5.982;2024-02-28T12:09:34;32.70;;;15.52;;
36233;SDS011;43467;50.890;5.982;2024-02-28T12:12:00;26.52;;;15.23;;
36233;SDS011;43467;50.890;5.982;2024-02-28T12:14:26;34.03;;;15.95;;
36233;SDS011;43467;50.890;5.982;2024-02-28T12:16:52;31.52;;;16.33;;
36233;SDS011;43467;50.890;5.982;2024-02-28T12:19:17;34.30;;;16.50;;
36233;SDS011;43467;50.890;5.982;2024-02-28T12:21:45;32.35;;;16.48;;
36233;SDS011;43467;50.890;5.982;2024-02-28T12:24:10;50.65;;;27.17;;
36233;SDS011;43467;50.890;5.982;2024-02-28T12:26:36;26.63;;;14.85;;
36233;SDS011;43467;50.890;5.982;2024-02-28T12:29:02;28.45;;;15.48;;
36233;SDS011;43467;50.890;5.982;2024-02-28T12:31:28;28.00;;;14.82;;
36233;SDS011;43467;50.890;5.982;2024-02-28T12:33:53;31.02;;;15.68;;
36233;SDS011;43467;50.890;5.982;2024-02-28T12:36:19;27.92;;;15.27;;
36233;SDS011;43467;50.890;5.982;2024-02-28T12:38:47;28.27;;;14.65;;
36233;SDS011;43467;50.890;5.982;2024-02-28T12:41:13;28.25;;;15.07;;
36233;SDS011;43467;50.890;5.982;2024-02-28T12:43:39;32.78;;;16.77;;
36233;SDS011;43467;50.890;5.982;2024-02-28T12:46:05;30.77;;;15.93;;
36233;SDS011;43467;50.890;5.982;2024-02-28T12:48:36;29.08;;;15.52;;
36233;SDS011;43467;50.890;5.982;2024-02-28T12:51:03;29.38;;;14.45;;
36233;SDS011;43467;50.890;5.982;2024-02-28T12:53:30;24.45;;;12.48;;
36233;SDS011;43467;50.890;5.982;2024-02-28T12:55:55;27.33;;;14.50;;
36233;SDS011;43467;50.890;5.982;2024-02-28T12:58:21;27.20;;;14.73;;
36233;SDS011;43467;50.890;5.982;2024-02-28T13:00:48;32.05;;;16.20;;
36233;SDS011;43467;50.890;5.982;2024-02-28T13:03:13;29.63;;;15.27;;
36233;SDS011;43467;50.890;5.982;2024-02-28T13:05:40;28.15;;;14.30;;
36233;SDS011;43467;50.890;5.982;2024-02-28T13:08:05;23.48;;;11.82;;
36233;SDS011;43467;50.890;5.982;2024-02-28T13:10:31;24.10;;;11.98;;
36233;SDS011;43467;50.890;5.982;2024-02-28T13:12:59;27.23;;;13.02;;
36233;SDS011;43467;50.890;5.982;2024-02-28T13:15:24;23.42;;;12.95;;
36233;SDS011;43467;50.890;5.982;2024-02-28T13:17:50;24.58;;;12.77;;
36233;SDS011;43467;50.890;5.982;2024-02-28T13:20:17;21.55;;;11.38;;
36233;SDS011;43467;50.890;5.982;2024-02-28T13:22:43;26.00;;;11.27;;
36233;SDS011;43467;50.890;5.982;2024-02-28T13:25:09;20.38;;;11.15;;
36233;SDS011;43467;50.890;5.982;2024-02-28T13:27:36;23.52;;;11.32;;
36233;SDS011;43467;50.890;5.982;2024-02-28T13:30:02;20.92;;;11.20;;
36233;SDS011;43467;50.890;5.982;2024-02-28T13:32:28;19.67;;;10.98;;
36233;SDS011;43467;50.890;5.982;2024-02-28T13:34:53;22.50;;;11.82;;
36233;SDS011;43467;50.890;5.982;2024-02-28T13:37:19;21.92;;;10.57;;
36233;SDS011;43467;50.890;5.982;2024-02-28T13:39:44;19.17;;;11.07;;
36233;SDS011;43467;50.890;5.982;2024-02-28T13:42:10;19.58;;;11.18;;
36233;SDS011;43467;50.890;5.982;2024-02-28T13:44:36;21.58;;;10.60;;
36233;SDS011;43467;50.890;5.982;2024-02-28T13:47:01;21.88;;;11.05;;
36233;SDS011;43467;50.890;5.982;2024-02-28T13:49:27;20.30;;;11.85;;
36233;SDS011;43467;50.890;5.982;2024-02-28T13:51:53;20.80;;;10.48;;
36233;SDS011;43467;50.890;5.982;2024-02-28T13:54:19;19.98;;;10.50;;
36233;SDS011;43467;50.890;5.982;2024-02-28T13:56:44;22.77;;;11.90;;
36233;SDS011;43467;50.890;5.982;2024-02-28T13:59:10;18.58;;;10.80;;
36233;SDS011;43467;50.890;5.982;2024-02-28T14:01:35;22.20;;;11.40;;
36233;SDS011;43467;50.890;5.982;2024-02-28T14:04:01;22.63;;;11.55;;
36233;SDS011;43467;50.890;5.982;2024-02-28T14:06:26;20.30;;;10.50;;
36233;SDS011;43467;50.890;5.982;2024-02-28T14:08:52;23.35;;;12.40;;
36233;SDS011;43467;50.890;5.982;2024-02-28T14:11:18;19.98;;;11.38;;
36233;SDS011;43467;50.890;5.982;2024-02-28T14:13:44;21.08;;;11.68;;
36233;SDS011;43467;50.890;5.982;2024-02-28T14:16:09;22.88;;;11.80;;